sensor_id;sensor_type;location;lat;lon;timestamp;P1;durP1;ratioP1;P2;durP2;ratioP2
8415;SDS011;4245;42.120;24.732;2023-04-03T00:00:09;3.63;;;1.60;;
8415;SDS011;4245;42.120;24.732;2023-04-03T00:02:37;2.70;;;1.40;;
8415;SDS011;4245;42.120;24.732;2023-04-03T00:05:05;1.83;;;1.60;;
8415;SDS011;4245;42.120;24.732;2023-04-03T00:07:33;3.63;;;1.60;;
8415;SDS011;4245;42.120;24.732;2023-04-03T00:10:01;2.43;;;1.93;;
8415;SDS011;4245;42.120;24.732;2023-04-03T00:12:29;1.80;;;1.50;;
8415;SDS011;4245;42.120;24.732;2023-04-03T00:14:55;5.33;;;1.50;;
8415;SDS011;4245;42.120;24.732;2023-04-03T00:17:22;2.07;;;1.60;;
8415;SDS011;4245;42.120;24.732;2023-04-03T00:19:49;2.30;;;1.50;;
8415;SDS011;4245;42.120;24.732;2023-04-03T00:22:16;2.67;;;1.80;;
8415;SDS011;4245;42.120;24.732;2023-04-03T00:24:43;4.00;;;1.80;;
8415;SDS011;4245;42.120;24.732;2023-04-03T00:27:11;2.07;;;1.57;;
8415;SDS011;4245;42.120;24.732;2023-04-03T00:29:38;5.30;;;3.17;;
8415;SDS011;4245;42.120;24.732;2023-04-03T00:32:05;2.30;;;1.80;;
8415;SDS011;4245;42.120;24.732;2023-04-03T00:34:32;2.60;;;1.80;;
8415;SDS011;4245;42.120;24.732;2023-04-03T00:36:59;2.77;;;1.80;;
8415;SDS011;4245;42.120;24.732;2023-04-03T00:39:26;3.43;;;1.47;;
8415;SDS011;4245;42.120;24.732;2023-04-03T00:41:54;3.87;;;1.73;;
8415;SDS011;4245;42.120;24.732;2023-04-03T00:45:14;3.23;;;1.80;;
8415;SDS011;4245;42.120;24.732;2023-04-03T00:47:28;1.43;;;1.33;;
8415;SDS011;4245;42.120;24.732;2023-04-03T00:49:57;2.30;;;1.57;;
8415;SDS011;4245;42.120;24.732;2023-04-03T00:52:25;2.57;;;1.67;;
8415;SDS011;4245;42.120;24.732;2023-04-03T00:54:56;2.50;;;1.70;;
8415;SDS011;4245;42.120;24.732;2023-04-03T00:57:26;2.03;;;1.70;;
8415;SDS011;4245;42.120;24.732;2023-04-03T00:59:56;2.40;;;1.70;;
8415;SDS011;4245;42.120;24.732;2023-04-03T01:02:28;1.77;;;1.57;;
8415;SDS011;4245;42.120;24.732;2023-04-03T01:04:55;2.10;;;1.90;;
8415;SDS011;4245;42.120;24.732;2023-04-03T01:07:22;3.93;;;2.00;;
8415;SDS011;4245;42.120;24.732;2023-04-03T01:09:52;4.50;;;1.87;;
8415;SDS011;4245;42.120;24.732;2023-04-03T01:12:23;2.50;;;2.13;;
8415;SDS011;4245;42.120;24.732;2023-04-03T01:14:52;3.90;;;1.70;;
8415;SDS011;4245;42.120;24.732;2023-04-03T01:17:31;2.20;;;1.87;;
8415;SDS011;4245;42.120;24.732;2023-04-03T01:20:04;3.63;;;1.73;;
8415;SDS011;4245;42.120;24.732;2023-04-03T01:22:59;3.80;;;1.90;;
8415;SDS011;4245;42.120;24.732;2023-04-03T01:25:38;5.77;;;2.27;;
8415;SDS011;4245;42.120;24.732;2023-04-03T01:28:07;3.53;;;1.90;;
8415;SDS011;4245;42.120;24.732;2023-04-03T01:30:37;3.77;;;1.97;;
8415;SDS011;4245;42.120;24.732;2023-04-03T01:33:10;8.40;;;2.40;;
8415;SDS011;4245;42.120;24.732;2023-04-03T01:35:37;3.93;;;2.20;;
8415;SDS011;4245;42.120;24.732;2023-04-03T01:38:04;3.90;;;2.20;;
8415;SDS011;4245;42.120;24.732;2023-04-03T01:40:32;2.83;;;2.00;;
8415;SDS011;4245;42.120;24.732;2023-04-03T01:42:59;3.93;;;2.40;;
8415;SDS011;4245;42.120;24.732;2023-04-03T01:45:26;2.47;;;1.90;;
8415;SDS011;4245;42.120;24.732;2023-04-03T01:47:53;4.53;;;2.20;;
8415;SDS011;4245;42.120;24.732;2023-04-03T01:50:21;2.73;;;1.90;;
8415;SDS011;4245;42.120;24.732;2023-04-03T01:52:48;3.37;;;2.00;;
8415;SDS011;4245;42.120;24.732;2023-04-03T01:55:15;2.10;;;1.90;;
8415;SDS011;4245;42.120;24.732;2023-04-03T01:57:42;2.40;;;1.90;;
8415;SDS011;4245;42.120;24.732;2023-04-03T02:00:09;2.13;;;1.90;;
8415;SDS011;4245;42.120;24.732;2023-04-03T02:02:37;3.30;;;2.10;;
8415;SDS011;4245;42.120;24.732;2023-04-03T02:05:04;4.63;;;1.90;;
8415;SDS011;4245;42.120;24.732;2023-04-03T02:07:33;3.00;;;2.03;;
8415;SDS011;4245;42.120;24.732;2023-04-03T02:10:00;4.60;;;2.30;;
8415;SDS011;4245;42.120;24.732;2023-04-03T02:12:27;5.27;;;1.90;;
8415;SDS011;4245;42.120;24.732;2023-04-03T02:14:54;3.50;;;2.10;;
8415;SDS011;4245;42.120;24.732;2023-04-03T02:17:21;4.27;;;2.43;;
8415;SDS011;4245;42.120;24.732;2023-04-03T02:19:48;3.53;;;2.80;;
8415;SDS011;4245;42.120;24.732;2023-04-03T02:22:15;6.80;;;3.70;;
8415;SDS011;4245;42.120;24.732;2023-04-03T02:24:44;5.63;;;3.80;;
8415;SDS011;4245;42.120;24.732;2023-04-03T02:27:10;6.87;;;3.90;;
8415;SDS011;4245;42.120;24.732;2023-04-03T02:29:37;5.83;;;3.77;;
8415;SDS011;4245;42.120;24.732;2023-04-03T02:32:04;7.00;;;4.50;;
8415;SDS011;4245;42.120;24.732;2023-04-03T02:34:31;7.87;;;4.53;;
8415;SDS011;4245;42.120;24.732;2023-04-03T02:36:58;8.90;;;4.77;;
8415;SDS011;4245;42.120;24.732;2023-04-03T02:39:25;6.80;;;4.50;;
8415;SDS011;4245;42.120;24.732;2023-04-03T02:41:54;8.63;;;5.13;;
8415;SDS011;4245;42.120;24.732;2023-04-03T02:44:21;8.47;;;4.60;;
8415;SDS011;4245;42.120;24.732;2023-04-03T02:46:48;7.80;;;4.77;;
8415;SDS011;4245;42.120;24.732;2023-04-03T02:49:15;6.97;;;4.47;;
8415;SDS011;4245;42.120;24.732;2023-04-03T02:51:42;5.73;;;4.03;;
8415;SDS011;4245;42.120;24.732;2023-04-03T02:54:09;7.37;;;3.57;;
8415;SDS011;4245;42.120;24.732;2023-04-03T02:56:36;6.37;;;3.30;;
8415;SDS011;4245;42.120;24.732;2023-04-03T02:59:04;7.53;;;3.50;;
8415;SDS011;4245;42.120;24.732;2023-04-03T03:01:31;6.17;;;3.13;;
8415;SDS011;4245;42.120;24.732;2023-04-03T03:03:59;4.77;;;3.10;;
8415;SDS011;4245;42.120;24.732;2023-04-03T03:06:26;4.50;;;2.83;;
8415;SDS011;4245;42.120;24.732;2023-04-03T03:08:53;5.20;;;3.63;;
8415;SDS011;4245;42.120;24.732;2023-04-03T03:11:20;5.83;;;3.40;;
8415;SDS011;4245;42.120;24.732;2023-04-03T03:13:48;4.70;;;3.27;;
8415;SDS011;4245;42.120;24.732;2023-04-03T03:16:16;7.00;;;3.23;;
8415;SDS011;4245;42.120;24.732;2023-04-03T03:18:43;6.87;;;3.20;;
8415;SDS011;4245;42.120;24.732;2023-04-03T03:21:10;6.87;;;3.70;;
8415;SDS011;4245;42.120;24.732;2023-04-03T03:23:37;5.27;;;3.40;;
8415;SDS011;4245;42.120;24.732;2023-04-03T03:26:05;8.03;;;4.80;;
8415;SDS011;4245;42.120;24.732;2023-04-03T03:28:34;7.13;;;4.70;;
8415;SDS011;4245;42.120;24.732;2023-04-03T03:31:01;6.23;;;3.90;;
8415;SDS011;4245;42.120;24.732;2023-04-03T03:33:30;8.70;;;5.80;;
8415;SDS011;4245;42.120;24.732;2023-04-03T03:35:57;10.67;;;4.60;;
8415;SDS011;4245;42.120;24.732;2023-04-03T03:38:24;7.43;;;4.27;;
8415;SDS011;4245;42.120;24.732;2023-04-03T03:40:51;5.90;;;3.83;;
8415;SDS011;4245;42.120;24.732;2023-04-03T03:43:18;8.50;;;4.40;;
8415;SDS011;4245;42.120;24.732;2023-04-03T03:45:46;10.27;;;5.03;;
8415;SDS011;4245;42.120;24.732;2023-04-03T03:48:17;7.87;;;4.60;;
8415;SDS011;4245;42.120;24.732;2023-04-03T03:50:45;11.67;;;5.43;;
8415;SDS011;4245;42.120;24.732;2023-04-03T03:53:12;13.00;;;6.20;;
8415;SDS011;4245;42.120;24.732;2023-04-03T03:55:40;7.00;;;4.40;;
8415;SDS011;4245;42.120;24.732;2023-04-03T03:58:07;8.53;;;4.87;;
8415;SDS011;4245;42.120;24.732;2023-04-03T04:00:34;9.23;;;4.77;;
8415;SDS011;4245;42.120;24.732;2023-04-03T04:03:01;8.47;;;4.97;;
8415;SDS011;4245;42.120;24.732;2023-04-03T04:05:28;6.83;;;4.30;;
8415;SDS011;4245;42.120;24.732;2023-04-03T04:07:57;5.27;;;3.80;;
8415;SDS011;4245;42.120;24.732;2023-04-03T04:10:24;14.23;;;8.87;;
8415;SDS011;4245;42.120;24.732;2023-04-03T04:12:51;10.40;;;4.07;;
8415;SDS011;4245;42.120;24.732;2023-04-03T04:15:18;8.10;;;3.77;;
8415;SDS011;4245;42.120;24.732;2023-04-03T04:17:46;5.93;;;3.60;;
8415;SDS011;4245;42.120;24.732;2023-04-03T04:20:13;10.67;;;3.93;;
8415;SDS011;4245;42.120;24.732;2023-04-03T04:22:40;13.70;;;4.70;;
8415;SDS011;4245;42.120;24.732;2023-04-03T04:25:09;4.63;;;3.70;;
8415;SDS011;4245;42.120;24.732;2023-04-03T04:27:36;5.83;;;3.80;;
8415;SDS011;4245;42.120;24.732;2023-04-03T04:30:03;10.37;;;3.90;;
8415;SDS011;4245;42.120;24.732;2023-04-03T04:32:32;6.50;;;3.57;;
8415;SDS011;4245;42.120;24.732;2023-04-03T04:34:58;4.37;;;3.20;;
8415;SDS011;4245;42.120;24.732;2023-04-03T04:37:26;8.80;;;4.73;;
8415;SDS011;4245;42.120;24.732;2023-04-03T04:39:53;7.47;;;3.70;;
8415;SDS011;4245;42.120;24.732;2023-04-03T04:42:21;8.17;;;4.30;;
8415;SDS011;4245;42.120;24.732;2023-04-03T04:44:48;8.23;;;4.13;;
8415;SDS011;4245;42.120;24.732;2023-04-03T04:47:15;7.03;;;4.50;;
8415;SDS011;4245;42.120;24.732;2023-04-03T04:49:42;16.80;;;5.80;;
8415;SDS011;4245;42.120;24.732;2023-04-03T04:52:09;18.33;;;8.67;;
8415;SDS011;4245;42.120;24.732;2023-04-03T04:54:36;11.13;;;5.90;;
8415;SDS011;4245;42.120;24.732;2023-04-03T04:57:03;11.63;;;5.80;;
8415;SDS011;4245;42.120;24.732;2023-04-03T04:59:31;13.73;;;5.53;;
8415;SDS011;4245;42.120;24.732;2023-04-03T05:01:58;15.10;;;5.60;;
8415;SDS011;4245;42.120;24.732;2023-04-03T05:04:25;17.67;;;6.10;;
8415;SDS011;4245;42.120;24.732;2023-04-03T05:06:52;17.63;;;5.97;;
8415;SDS011;4245;42.120;24.732;2023-04-03T05:09:19;11.37;;;5.57;;
8415;SDS011;4245;42.120;24.732;2023-04-03T05:11:46;24.00;;;6.97;;
8415;SDS011;4245;42.120;24.732;2023-04-03T05:14:13;29.47;;;9.90;;
8415;SDS011;4245;42.120;24.732;2023-04-03T05:16:41;32.27;;;7.63;;
8415;SDS011;4245;42.120;24.732;2023-04-03T05:19:08;33.83;;;8.33;;
8415;SDS011;4245;42.120;24.732;2023-04-03T05:21:35;36.37;;;8.57;;
8415;SDS011;4245;42.120;24.732;2023-04-03T05:24:02;38.10;;;9.30;;
8415;SDS011;4245;42.120;24.732;2023-04-03T05:26:30;56.20;;;9.83;;
8415;SDS011;4245;42.120;24.732;2023-04-03T05:28:57;43.20;;;9.73;;
8415;SDS011;4245;42.120;24.732;2023-04-03T05:31:24;34.87;;;10.37;;
8415;SDS011;4245;42.120;24.732;2023-04-03T05:33:56;43.30;;;10.60;;
8415;SDS011;4245;42.120;24.732;2023-04-03T05:36:23;35.87;;;10.90;;
8415;SDS011;4245;42.120;24.732;2023-04-03T05:38:50;28.07;;;9.47;;
8415;SDS011;4245;42.120;24.732;2023-04-03T05:41:17;34.57;;;9.93;;
8415;SDS011;4245;42.120;24.732;2023-04-03T05:43:45;23.20;;;8.50;;
8415;SDS011;4245;42.120;24.732;2023-04-03T05:46:13;30.93;;;9.40;;
8415;SDS011;4245;42.120;24.732;2023-04-03T05:48:41;25.20;;;8.53;;
8415;SDS011;4245;42.120;24.732;2023-04-03T05:51:12;27.90;;;9.40;;
8415;SDS011;4245;42.120;24.732;2023-04-03T05:53:41;24.83;;;10.00;;
8415;SDS011;4245;42.120;24.732;2023-04-03T05:56:09;29.33;;;10.03;;
8415;SDS011;4245;42.120;24.732;2023-04-03T05:58:36;24.47;;;9.20;;
8415;SDS011;4245;42.120;24.732;2023-04-03T06:01:04;16.80;;;8.47;;
8415;SDS011;4245;42.120;24.732;2023-04-03T06:03:31;26.50;;;9.43;;
8415;SDS011;4245;42.120;24.732;2023-04-03T06:05:58;35.80;;;9.00;;
8415;SDS011;4245;42.120;24.732;2023-04-03T06:08:27;23.87;;;9.33;;
8415;SDS011;4245;42.120;24.732;2023-04-03T06:10:54;19.57;;;7.30;;
8415;SDS011;4245;42.120;24.732;2023-04-03T06:13:21;23.33;;;8.67;;
8415;SDS011;4245;42.120;24.732;2023-04-03T06:15:48;22.37;;;8.40;;
8415;SDS011;4245;42.120;24.732;2023-04-03T06:18:15;22.00;;;7.83;;
8415;SDS011;4245;42.120;24.732;2023-04-03T06:20:42;18.27;;;7.67;;
8415;SDS011;4245;42.120;24.732;2023-04-03T06:23:09;19.03;;;6.33;;
8415;SDS011;4245;42.120;24.732;2023-04-03T06:25:38;11.97;;;5.50;;
8415;SDS011;4245;42.120;24.732;2023-04-03T06:28:05;8.77;;;5.23;;
8415;SDS011;4245;42.120;24.732;2023-04-03T06:30:34;17.07;;;6.13;;
8415;SDS011;4245;42.120;24.732;2023-04-03T06:33:01;12.93;;;6.07;;
8415;SDS011;4245;42.120;24.732;2023-04-03T06:35:28;12.63;;;5.40;;
8415;SDS011;4245;42.120;24.732;2023-04-03T06:37:56;12.77;;;4.80;;
8415;SDS011;4245;42.120;24.732;2023-04-03T06:40:23;12.07;;;5.20;;
8415;SDS011;4245;42.120;24.732;2023-04-03T06:42:52;10.57;;;4.70;;
8415;SDS011;4245;42.120;24.732;2023-04-03T06:48:11;11.87;;;5.27;;
8415;SDS011;4245;42.120;24.732;2023-04-03T06:50:38;6.70;;;4.27;;
8415;SDS011;4245;42.120;24.732;2023-04-03T06:53:05;25.83;;;16.30;;
8415;SDS011;4245;42.120;24.732;2023-04-03T06:55:32;12.27;;;5.53;;
8415;SDS011;4245;42.120;24.732;2023-04-03T06:58:01;12.20;;;6.37;;
8415;SDS011;4245;42.120;24.732;2023-04-03T07:00:28;12.37;;;6.70;;
8415;SDS011;4245;42.120;24.732;2023-04-03T07:02:55;11.07;;;5.93;;
8415;SDS011;4245;42.120;24.732;2023-04-03T07:05:22;8.50;;;4.60;;
8415;SDS011;4245;42.120;24.732;2023-04-03T07:07:49;20.77;;;5.03;;
8415;SDS011;4245;42.120;24.732;2023-04-03T07:10:17;10.43;;;4.40;;
8415;SDS011;4245;42.120;24.732;2023-04-03T07:12:44;8.17;;;4.83;;
8415;SDS011;4245;42.120;24.732;2023-04-03T07:15:12;9.07;;;5.70;;
8415;SDS011;4245;42.120;24.732;2023-04-03T07:17:39;10.33;;;5.37;;
8415;SDS011;4245;42.120;24.732;2023-04-03T07:20:07;10.57;;;5.70;;
8415;SDS011;4245;42.120;24.732;2023-04-03T07:22:35;14.97;;;5.40;;
8415;SDS011;4245;42.120;24.732;2023-04-03T07:25:02;8.63;;;5.07;;
8415;SDS011;4245;42.120;24.732;2023-04-03T07:27:29;12.90;;;5.57;;
8415;SDS011;4245;42.120;24.732;2023-04-03T07:29:57;10.97;;;5.33;;
8415;SDS011;4245;42.120;24.732;2023-04-03T07:32:25;8.80;;;5.30;;
8415;SDS011;4245;42.120;24.732;2023-04-03T07:34:52;12.33;;;5.77;;
8415;SDS011;4245;42.120;24.732;2023-04-03T07:37:19;7.77;;;4.93;;
8415;SDS011;4245;42.120;24.732;2023-04-03T07:39:46;12.63;;;5.70;;
8415;SDS011;4245;42.120;24.732;2023-04-03T07:42:13;8.63;;;5.20;;
8415;SDS011;4245;42.120;24.732;2023-04-03T07:44:40;8.03;;;4.60;;
8415;SDS011;4245;42.120;24.732;2023-04-03T07:47:07;9.20;;;4.87;;
8415;SDS011;4245;42.120;24.732;2023-04-03T07:49:36;11.00;;;5.33;;
8415;SDS011;4245;42.120;24.732;2023-04-03T07:52:05;11.73;;;4.60;;
8415;SDS011;4245;42.120;24.732;2023-04-03T07:54:34;9.20;;;4.50;;
8415;SDS011;4245;42.120;24.732;2023-04-03T07:57:01;14.67;;;4.70;;
8415;SDS011;4245;42.120;24.732;2023-04-03T07:59:28;8.73;;;5.17;;
8415;SDS011;4245;42.120;24.732;2023-04-03T08:01:55;16.17;;;9.30;;
8415;SDS011;4245;42.120;24.732;2023-04-03T08:04:22;29.07;;;19.53;;
8415;SDS011;4245;42.120;24.732;2023-04-03T08:06:50;34.17;;;26.00;;
8415;SDS011;4245;42.120;24.732;2023-04-03T08:09:17;17.43;;;5.60;;
8415;SDS011;4245;42.120;24.732;2023-04-03T08:11:45;29.57;;;18.40;;
8415;SDS011;4245;42.120;24.732;2023-04-03T08:14:12;10.93;;;6.43;;
8415;SDS011;4245;42.120;24.732;2023-04-03T08:16:43;13.10;;;6.40;;
8415;SDS011;4245;42.120;24.732;2023-04-03T08:19:11;18.87;;;8.53;;
8415;SDS011;4245;42.120;24.732;2023-04-03T08:21:39;18.27;;;8.80;;
8415;SDS011;4245;42.120;24.732;2023-04-03T08:24:07;18.40;;;6.83;;
8415;SDS011;4245;42.120;24.732;2023-04-03T08:26:35;13.07;;;6.60;;
8415;SDS011;4245;42.120;24.732;2023-04-03T08:29:02;9.47;;;5.63;;
8415;SDS011;4245;42.120;24.732;2023-04-03T08:31:29;30.27;;;9.00;;
8415;SDS011;4245;42.120;24.732;2023-04-03T08:33:56;16.03;;;7.17;;
8415;SDS011;4245;42.120;24.732;2023-04-03T08:36:24;15.13;;;7.17;;
8415;SDS011;4245;42.120;24.732;2023-04-03T08:38:53;11.63;;;6.87;;
8415;SDS011;4245;42.120;24.732;2023-04-03T08:41:25;15.67;;;7.07;;
8415;SDS011;4245;42.120;24.732;2023-04-03T08:44:07;15.00;;;7.80;;
8415;SDS011;4245;42.120;24.732;2023-04-03T08:46:44;17.20;;;7.47;;
8415;SDS011;4245;42.120;24.732;2023-04-03T08:49:23;14.10;;;6.67;;
8415;SDS011;4245;42.120;24.732;2023-04-03T08:51:54;12.67;;;6.20;;
8415;SDS011;4245;42.120;24.732;2023-04-03T08:54:28;10.93;;;5.30;;
8415;SDS011;4245;42.120;24.732;2023-04-03T08:56:59;11.30;;;5.97;;
8415;SDS011;4245;42.120;24.732;2023-04-03T08:59:32;10.73;;;5.93;;
8415;SDS011;4245;42.120;24.732;2023-04-03T09:02:00;16.40;;;5.90;;
8415;SDS011;4245;42.120;24.732;2023-04-03T09:04:38;12.93;;;5.80;;
8415;SDS011;4245;42.120;24.732;2023-04-03T09:07:07;12.13;;;4.80;;
8415;SDS011;4245;42.120;24.732;2023-04-03T09:09:39;9.60;;;5.27;;
8415;SDS011;4245;42.120;24.732;2023-04-03T09:12:14;8.17;;;4.70;;
8415;SDS011;4245;42.120;24.732;2023-04-03T09:14:48;7.07;;;4.90;;
8415;SDS011;4245;42.120;24.732;2023-04-03T09:17:26;8.83;;;5.87;;
8415;SDS011;4245;42.120;24.732;2023-04-03T09:20:05;8.60;;;5.10;;
8415;SDS011;4245;42.120;24.732;2023-04-03T09:22:42;9.43;;;5.00;;
8415;SDS011;4245;42.120;24.732;2023-04-03T09:25:11;8.30;;;5.20;;
8415;SDS011;4245;42.120;24.732;2023-04-03T09:27:43;13.10;;;4.63;;
8415;SDS011;4245;42.120;24.732;2023-04-03T09:30:12;9.77;;;4.67;;
8415;SDS011;4245;42.120;24.732;2023-04-03T09:32:41;9.77;;;4.33;;
8415;SDS011;4245;42.120;24.732;2023-04-03T09:35:16;7.20;;;3.80;;
8415;SDS011;4245;42.120;24.732;2023-04-03T09:37:46;13.97;;;6.43;;
8415;SDS011;4245;42.120;24.732;2023-04-03T09:40:35;7.30;;;4.07;;
8415;SDS011;4245;42.120;24.732;2023-04-03T09:48:49;14.07;;;3.87;;
8415;SDS011;4245;42.120;24.732;2023-04-03T09:51:17;9.40;;;3.90;;
8415;SDS011;4245;42.120;24.732;2023-04-03T09:53:44;5.40;;;3.27;;
8415;SDS011;4245;42.120;24.732;2023-04-03T09:56:18;6.57;;;3.57;;
8415;SDS011;4245;42.120;24.732;2023-04-03T09:58:50;8.60;;;4.67;;
8415;SDS011;4245;42.120;24.732;2023-04-03T10:01:32;6.67;;;4.00;;
8415;SDS011;4245;42.120;24.732;2023-04-03T10:04:06;7.83;;;3.63;;
8415;SDS011;4245;42.120;24.732;2023-04-03T10:06:36;7.70;;;3.63;;
8415;SDS011;4245;42.120;24.732;2023-04-03T10:09:10;5.87;;;3.40;;
8415;SDS011;4245;42.120;24.732;2023-04-03T10:14:31;5.90;;;3.70;;
8415;SDS011;4245;42.120;24.732;2023-04-03T10:17:02;5.67;;;3.60;;
8415;SDS011;4245;42.120;24.732;2023-04-03T10:19:40;4.50;;;3.33;;
8415;SDS011;4245;42.120;24.732;2023-04-03T10:22:20;6.10;;;3.00;;
8415;SDS011;4245;42.120;24.732;2023-04-03T10:24:58;5.03;;;3.43;;
8415;SDS011;4245;42.120;24.732;2023-04-03T10:27:38;7.47;;;3.53;;
8415;SDS011;4245;42.120;24.732;2023-04-03T10:30:21;6.43;;;3.47;;
8415;SDS011;4245;42.120;24.732;2023-04-03T10:33:04;6.70;;;3.10;;
8415;SDS011;4245;42.120;24.732;2023-04-03T10:35:42;5.53;;;3.87;;
8415;SDS011;4245;42.120;24.732;2023-04-03T10:38:17;4.13;;;3.40;;
8415;SDS011;4245;42.120;24.732;2023-04-03T10:40:55;6.50;;;3.80;;
8415;SDS011;4245;42.120;24.732;2023-04-03T10:43:29;5.00;;;3.60;;
8415;SDS011;4245;42.120;24.732;2023-04-03T10:46:05;6.43;;;3.90;;
8415;SDS011;4245;42.120;24.732;2023-04-03T10:48:40;4.83;;;3.57;;
8415;SDS011;4245;42.120;24.732;2023-04-03T10:51:25;8.10;;;5.30;;
8415;SDS011;4245;42.120;24.732;2023-04-03T10:53:56;9.43;;;5.60;;
8415;SDS011;4245;42.120;24.732;2023-04-03T10:56:31;5.90;;;4.77;;
8415;SDS011;4245;42.120;24.732;2023-04-03T10:59:05;6.80;;;4.23;;
8415;SDS011;4245;42.120;24.732;2023-04-03T11:01:44;7.43;;;3.93;;
8415;SDS011;4245;42.120;24.732;2023-04-03T11:04:14;8.83;;;4.10;;
8415;SDS011;4245;42.120;24.732;2023-04-03T11:06:43;6.90;;;4.67;;
8415;SDS011;4245;42.120;24.732;2023-04-03T11:09:16;5.37;;;4.40;;
8415;SDS011;4245;42.120;24.732;2023-04-03T11:11:49;5.90;;;3.87;;
8415;SDS011;4245;42.120;24.732;2023-04-03T11:14:21;5.73;;;4.47;;
8415;SDS011;4245;42.120;24.732;2023-04-03T11:16:55;9.47;;;5.33;;
8415;SDS011;4245;42.120;24.732;2023-04-03T11:19:33;6.47;;;4.33;;
8415;SDS011;4245;42.120;24.732;2023-04-03T11:22:03;5.67;;;3.90;;
8415;SDS011;4245;42.120;24.732;2023-04-03T11:24:36;6.77;;;4.40;;
8415;SDS011;4245;42.120;24.732;2023-04-03T11:27:08;7.97;;;4.20;;
8415;SDS011;4245;42.120;24.732;2023-04-03T11:29:42;7.57;;;4.77;;
8415;SDS011;4245;42.120;24.732;2023-04-03T11:32:17;9.97;;;5.00;;
8415;SDS011;4245;42.120;24.732;2023-04-03T11:34:56;7.87;;;4.63;;
8415;SDS011;4245;42.120;24.732;2023-04-03T11:37:28;7.87;;;4.60;;
8415;SDS011;4245;42.120;24.732;2023-04-03T11:40:01;6.57;;;4.90;;
8415;SDS011;4245;42.120;24.732;2023-04-03T11:42:32;7.80;;;4.37;;
8415;SDS011;4245;42.120;24.732;2023-04-03T11:45:15;8.73;;;6.87;;
8415;SDS011;4245;42.120;24.732;2023-04-03T11:47:55;45.33;;;29.90;;
8415;SDS011;4245;42.120;24.732;2023-04-03T11:50:43;23.40;;;18.17;;
8415;SDS011;4245;42.120;24.732;2023-04-03T11:56:01;4.67;;;3.20;;
8415;SDS011;4245;42.120;24.732;2023-04-03T11:58:43;5.80;;;4.20;;
8415;SDS011;4245;42.120;24.732;2023-04-03T12:01:53;4.80;;;3.80;;
8415;SDS011;4245;42.120;24.732;2023-04-03T12:04:23;7.40;;;3.50;;
8415;SDS011;4245;42.120;24.732;2023-04-03T12:06:53;7.03;;;4.13;;
8415;SDS011;4245;42.120;24.732;2023-04-03T12:12:55;9.20;;;4.70;;
8415;SDS011;4245;42.120;24.732;2023-04-03T12:21:10;7.90;;;4.73;;
8415;SDS011;4245;42.120;24.732;2023-04-03T12:26:26;9.00;;;5.13;;
8415;SDS011;4245;42.120;24.732;2023-04-03T12:28:56;8.47;;;5.17;;
8415;SDS011;4245;42.120;24.732;2023-04-03T12:31:25;9.13;;;6.27;;
8415;SDS011;4245;42.120;24.732;2023-04-03T12:34:12;8.47;;;6.07;;
8415;SDS011;4245;42.120;24.732;2023-04-03T12:36:49;8.63;;;5.90;;
8415;SDS011;4245;42.120;24.732;2023-04-03T12:42:18;11.03;;;7.00;;
8415;SDS011;4245;42.120;24.732;2023-04-03T12:45:00;11.53;;;7.00;;
8415;SDS011;4245;42.120;24.732;2023-04-03T12:47:36;13.10;;;7.10;;
8415;SDS011;4245;42.120;24.732;2023-04-03T12:50:13;10.10;;;6.43;;
8415;SDS011;4245;42.120;24.732;2023-04-03T12:52:47;11.70;;;6.57;;
8415;SDS011;4245;42.120;24.732;2023-04-03T12:55:20;10.80;;;6.70;;
8415;SDS011;4245;42.120;24.732;2023-04-03T12:57:48;9.33;;;6.00;;
8415;SDS011;4245;42.120;24.732;2023-04-03T13:00:20;140.17;;;93.67;;
8415;SDS011;4245;42.120;24.732;2023-04-03T13:02:52;91.87;;;62.90;;
8415;SDS011;4245;42.120;24.732;2023-04-03T13:05:21;28.40;;;20.43;;
8415;SDS011;4245;42.120;24.732;2023-04-03T13:07:51;12.87;;;8.10;;
8415;SDS011;4245;42.120;24.732;2023-04-03T13:10:22;13.67;;;7.30;;
8415;SDS011;4245;42.120;24.732;2023-04-03T13:12:49;10.27;;;7.60;;
8415;SDS011;4245;42.120;24.732;2023-04-03T13:15:19;14.00;;;8.17;;
8415;SDS011;4245;42.120;24.732;2023-04-03T13:17:50;40.30;;;19.23;;
8415;SDS011;4245;42.120;24.732;2023-04-03T13:20:19;18.53;;;9.37;;
8415;SDS011;4245;42.120;24.732;2023-04-03T13:22:59;14.47;;;8.47;;
8415;SDS011;4245;42.120;24.732;2023-04-03T13:25:30;17.47;;;8.60;;
8415;SDS011;4245;42.120;24.732;2023-04-03T13:28:00;16.93;;;8.17;;
8415;SDS011;4245;42.120;24.732;2023-04-03T13:30:30;14.50;;;8.80;;
8415;SDS011;4245;42.120;24.732;2023-04-03T13:33:00;14.13;;;9.63;;
8415;SDS011;4245;42.120;24.732;2023-04-03T13:35:34;13.87;;;9.07;;
8415;SDS011;4245;42.120;24.732;2023-04-03T13:38:06;16.23;;;9.93;;
8415;SDS011;4245;42.120;24.732;2023-04-03T13:40:48;11.97;;;9.90;;
8415;SDS011;4245;42.120;24.732;2023-04-03T13:43:20;14.17;;;9.83;;
8415;SDS011;4245;42.120;24.732;2023-04-03T13:45:55;12.33;;;9.27;;
8415;SDS011;4245;42.120;24.732;2023-04-03T13:48:24;16.40;;;9.30;;
8415;SDS011;4245;42.120;24.732;2023-04-03T13:50:56;12.17;;;9.10;;
8415;SDS011;4245;42.120;24.732;2023-04-03T13:53:28;11.13;;;8.57;;
8415;SDS011;4245;42.120;24.732;2023-04-03T13:55:58;13.97;;;9.63;;
8415;SDS011;4245;42.120;24.732;2023-04-03T13:58:32;13.07;;;8.67;;
8415;SDS011;4245;42.120;24.732;2023-04-03T14:01:01;15.87;;;9.43;;
8415;SDS011;4245;42.120;24.732;2023-04-03T14:03:37;13.30;;;10.10;;
8415;SDS011;4245;42.120;24.732;2023-04-03T14:06:08;17.53;;;9.93;;
8415;SDS011;4245;42.120;24.732;2023-04-03T14:08:39;12.50;;;9.47;;
8415;SDS011;4245;42.120;24.732;2023-04-03T14:11:08;14.00;;;10.13;;
8415;SDS011;4245;42.120;24.732;2023-04-03T14:13:39;13.10;;;9.90;;
8415;SDS011;4245;42.120;24.732;2023-04-03T14:16:07;17.00;;;11.13;;
8415;SDS011;4245;42.120;24.732;2023-04-03T14:18:34;15.37;;;10.73;;
8415;SDS011;4245;42.120;24.732;2023-04-03T14:21:01;13.10;;;10.23;;
8415;SDS011;4245;42.120;24.732;2023-04-03T14:23:28;18.07;;;10.70;;
8415;SDS011;4245;42.120;24.732;2023-04-03T14:25:57;17.40;;;10.93;;
8415;SDS011;4245;42.120;24.732;2023-04-03T14:28:25;14.77;;;10.77;;
8415;SDS011;4245;42.120;24.732;2023-04-03T14:30:52;16.10;;;10.50;;
8415;SDS011;4245;42.120;24.732;2023-04-03T14:33:20;16.03;;;10.90;;
8415;SDS011;4245;42.120;24.732;2023-04-03T14:35:48;14.90;;;10.87;;
8415;SDS011;4245;42.120;24.732;2023-04-03T14:38:20;15.73;;;10.80;;
8415;SDS011;4245;42.120;24.732;2023-04-03T14:40:50;15.97;;;11.30;;
8415;SDS011;4245;42.120;24.732;2023-04-03T14:43:20;15.03;;;11.97;;
8415;SDS011;4245;42.120;24.732;2023-04-03T14:45:47;15.40;;;11.97;;
8415;SDS011;4245;42.120;24.732;2023-04-03T14:48:15;24.37;;;17.13;;
8415;SDS011;4245;42.120;24.732;2023-04-03T14:50:45;21.70;;;14.50;;
8415;SDS011;4245;42.120;24.732;2023-04-03T14:53:13;20.47;;;12.30;;
8415;SDS011;4245;42.120;24.732;2023-04-03T14:55:42;16.07;;;12.77;;
8415;SDS011;4245;42.120;24.732;2023-04-03T14:58:12;16.60;;;13.27;;
8415;SDS011;4245;42.120;24.732;2023-04-03T15:00:42;17.53;;;12.80;;
8415;SDS011;4245;42.120;24.732;2023-04-03T15:03:12;18.93;;;13.37;;
8415;SDS011;4245;42.120;24.732;2023-04-03T15:05:41;19.23;;;12.97;;
8415;SDS011;4245;42.120;24.732;2023-04-03T15:08:13;20.03;;;13.90;;
8415;SDS011;4245;42.120;24.732;2023-04-03T15:10:45;21.73;;;14.30;;
8415;SDS011;4245;42.120;24.732;2023-04-03T15:13:12;20.83;;;13.10;;
8415;SDS011;4245;42.120;24.732;2023-04-03T15:15:39;17.67;;;13.67;;
8415;SDS011;4245;42.120;24.732;2023-04-03T15:18:09;16.20;;;12.97;;
8415;SDS011;4245;42.120;24.732;2023-04-03T15:20:40;18.40;;;12.67;;
8415;SDS011;4245;42.120;24.732;2023-04-03T15:23:08;17.23;;;11.93;;
8415;SDS011;4245;42.120;24.732;2023-04-03T15:25:37;16.50;;;12.07;;
8415;SDS011;4245;42.120;24.732;2023-04-03T15:28:04;19.33;;;12.23;;
8415;SDS011;4245;42.120;24.732;2023-04-03T15:30:32;15.63;;;11.60;;
8415;SDS011;4245;42.120;24.732;2023-04-03T15:33:01;14.63;;;11.13;;
8415;SDS011;4245;42.120;24.732;2023-04-03T15:35:30;18.77;;;10.93;;
8415;SDS011;4245;42.120;24.732;2023-04-03T15:37:56;17.20;;;11.30;;